Time;durP1;ratioP1;P1;durP2;ratioP2;P2;SDS_P1;SDS_P2;PMS_P1;PMS_P2;Temp;Humidity;BMP_temperature;BMP_pressure;BME280_temperature;BME280_humidity;BME280_pressure;Samples;Min_cycle;Max_cycle;Signal;HPM_P1;HPM_P2
2022/04/23 00:01:25;;;;;;;24.98;14.60;;;;;;;;;;6294763;28;20017;-81
2022/04/23 00:04:25;;;;;;;24.97;15.00;;;;;;;;;;6292861;28;20017;-81
2022/04/23 00:07:26;;;;;;;29.17;13.65;;;;;;;;;;6295488;28;20263;-81
2022/04/23 00:10:26;;;;;;;24.02;12.52;;;;;;;;;;6287890;28;20126;-81
2022/04/23 00:13:26;;;;;;;23.98;12.38;;;;;;;;;;6269010;28;20025;-81
2022/04/23 00:16:27;;;;;;;24.92;12.48;;;;;;;;;;6269058;28;20460;-81
2022/04/23 00:19:27;;;;;;;26.88;13.45;;;;;;;;;;6281580;28;20512;-81
2022/04/23 00:22:29;;;;;;;36.53;13.90;;;;;;;;;;6297832;28;20040;-81
2022/04/23 00:25:29;;;;;;;21.10;11.48;;;;;;;;;;6298010;28;20748;-81
2022/04/23 00:28:29;;;;;;;23.20;11.47;;;;;;;;;;6297865;28;20067;-81
2022/04/23 00:31:30;;;;;;;19.67;12.10;;;;;;;;;;6298178;28;20278;-81
2022/04/23 00:34:30;;;;;;;23.77;12.48;;;;;;;;;;6285306;28;20270;-81
2022/04/23 00:37:30;;;;;;;22.13;11.48;;;;;;;;;;6297857;28;20056;-81
2022/04/23 00:40:31;;;;;;;21.73;12.03;;;;;;;;;;6296059;28;20452;-81
2022/04/23 00:43:35;;;;;;;23.88;12.20;;;;;;;;;;6297771;28;20584;-81
2022/04/23 00:46:36;;;;;;;28.80;14.57;;;;;;;;;;6297551;28;20476;-81
2022/04/23 00:49:36;;;;;;;32.38;16.05;;;;;;;;;;6295691;28;20080;-81
2022/04/23 00:52:36;;;;;;;32.53;15.95;;;;;;;;;;6296859;28;20051;-81
2022/04/23 00:55:37;;;;;;;39.75;18.80;;;;;;;;;;6299065;28;20028;-81
2022/04/23 00:58:38;;;;;;;36.83;18.75;;;;;;;;;;6299117;28;20103;-81
2022/04/23 01:01:40;;;;;;;43.22;19.38;;;;;;;;;;6296552;28;20021;-81
2022/04/23 01:04:40;;;;;;;33.25;19.15;;;;;;;;;;6282178;28;20074;-81
2022/04/23 01:07:42;;;;;;;40.90;19.85;;;;;;;;;;6272231;28;20435;-81
2022/04/23 01:10:45;;;;;;;32.60;17.42;;;;;;;;;;6271933;28;20060;-81
2022/04/23 01:13:46;;;;;;;39.17;17.10;;;;;;;;;;6272017;28;20017;-81
2022/04/23 01:16:47;;;;;;;33.88;16.17;;;;;;;;;;6270468;28;20531;-81
2022/04/23 01:19:47;;;;;;;33.90;18.25;;;;;;;;;;6271141;28;20021;-81
2022/04/23 01:22:47;;;;;;;31.25;16.30;;;;;;;;;;6272174;28;20025;-82
2022/04/23 01:25:54;;;;;;;30.60;16.17;;;;;;;;;;6289842;28;20024;-81
2022/04/23 01:28:55;;;;;;;35.67;18.38;;;;;;;;;;6297121;28;20025;-81
2022/04/23 01:31:55;;;;;;;37.35;15.63;;;;;;;;;;6296358;28;20036;-81
2022/04/23 01:34:56;;;;;;;38.20;18.67;;;;;;;;;;6286153;28;20021;-81
2022/04/23 01:37:56;;;;;;;35.20;18.20;;;;;;;;;;6287436;28;20354;-81
2022/04/23 01:40:56;;;;;;;37.45;18.98;;;;;;;;;;6271546;28;20029;-81
2022/04/23 01:43:57;;;;;;;36.45;16.70;;;;;;;;;;6286738;28;20017;-82
2022/04/23 01:46:57;;;;;;;37.88;17.77;;;;;;;;;;6271188;28;20557;-82
2022/04/23 01:49:57;;;;;;;36.53;17.55;;;;;;;;;;6269023;28;20162;-81
2022/04/23 01:52:58;;;;;;;34.50;15.60;;;;;;;;;;6270535;28;20104;-81
2022/04/23 01:55:58;;;;;;;29.88;16.33;;;;;;;;;;6287468;28;20323;-81
2022/04/23 01:58:58;;;;;;;31.50;14.52;;;;;;;;;;6295298;28;20090;-81
2022/04/23 02:02:01;;;;;;;32.60;14.83;;;;;;;;;;6291244;28;20428;-81
2022/04/23 02:05:01;;;;;;;26.90;13.85;;;;;;;;;;6297322;28;20278;-81
2022/04/23 02:08:02;;;;;;;26.00;14.50;;;;;;;;;;6269858;28;20025;-81
2022/04/23 02:11:02;;;;;;;31.02;15.82;;;;;;;;;;6269330;28;20504;-81
2022/04/23 02:14:02;;;;;;;28.23;14.45;;;;;;;;;;6268829;28;20773;-81
2022/04/23 02:17:03;;;;;;;26.98;15.38;;;;;;;;;;6285183;28;20502;-81
2022/04/23 02:20:04;;;;;;;28.73;14.52;;;;;;;;;;6282727;28;20021;-81
2022/04/23 02:23:04;;;;;;;23.80;12.75;;;;;;;;;;6294514;28;20029;-81
2022/04/23 02:26:05;;;;;;;27.27;12.32;;;;;;;;;;6289652;28;20029;-81
2022/04/23 02:29:05;;;;;;;29.70;15.90;;;;;;;;;;6294511;28;20028;-82
2022/04/23 02:32:05;;;;;;;32.60;15.80;;;;;;;;;;6294939;28;20032;-81
2022/04/23 02:35:06;;;;;;;34.85;16.90;;;;;;;;;;6282965;28;20303;-82
2022/04/23 02:38:07;;;;;;;34.50;17.88;;;;;;;;;;6269447;28;20028;-82
2022/04/23 02:41:07;;;;;;;38.17;19.25;;;;;;;;;;6267609;28;20024;-81
2022/04/23 02:44:08;;;;;;;37.42;19.25;;;;;;;;;;6269520;28;20085;-81
2022/04/23 02:47:08;;;;;;;37.63;18.20;;;;;;;;;;6268358;28;20417;-82
2022/04/23 02:50:11;;;;;;;42.78;19.88;;;;;;;;;;6268374;28;20303;-82
2022/04/23 02:53:11;;;;;;;39.03;19.33;;;;;;;;;;6284322;28;20449;-81
2022/04/23 02:56:13;;;;;;;36.90;17.38;;;;;;;;;;6287692;28;20016;-81
2022/04/23 02:59:13;;;;;;;41.55;18.20;;;;;;;;;;6294290;28;20024;-81
2022/04/23 03:02:13;;;;;;;31.48;15.52;;;;;;;;;;6287853;28;20051;-81
2022/04/23 03:05:16;;;;;;;34.22;15.48;;;;;;;;;;6290076;28;20020;-81
2022/04/23 03:08:16;;;;;;;32.28;15.48;;;;;;;;;;6292271;28;20028;-81
2022/04/23 03:11:17;;;;;;;33.90;15.38;;;;;;;;;;6277259;28;20481;-81
2022/04/23 03:14:19;;;;;;;27.30;13.52;;;;;;;;;;6283795;28;20495;-81
2022/04/23 03:17:19;;;;;;;;;;;;;;;;;;6284069;28;20086;-82
2022/04/23 03:20:21;;;;;;;33.65;14.13;;;;;;;;;;6285639;28;19912;-81
2022/04/23 03:23:21;;;;;;;26.75;12.35;;;;;;;;;;6291955;28;20029;-81
2022/04/23 03:26:22;;;;;;;33.42;16.30;;;;;;;;;;6288915;28;20468;-81
2022/04/23 03:29:22;;;;;;;32.25;14.15;;;;;;;;;;6291742;28;20373;-78
2022/04/23 03:32:23;;;;;;;33.15;16.30;;;;;;;;;;6290786;28;20143;-80
2022/04/23 03:35:23;;;;;;;28.15;14.18;;;;;;;;;;6278021;28;20013;-80
2022/04/23 03:38:23;;;;;;;37.25;16.08;;;;;;;;;;6265957;28;20021;-79
2022/04/23 03:41:23;;;;;;;37.07;17.50;;;;;;;;;;6282751;28;20029;-79
2022/04/23 03:44:24;;;;;;;31.38;14.10;;;;;;;;;;6267874;28;20259;-79
2022/04/23 03:47:24;;;;;;;32.30;14.00;;;;;;;;;;6266151;28;20032;-79
2022/04/23 03:50:24;;;;;;;29.02;14.82;;;;;;;;;;6267090;28;20278;-78
2022/04/23 03:53:24;;;;;;;33.45;15.10;;;;;;;;;;6268499;28;20033;-78
2022/04/23 03:56:25;;;;;;;28.60;14.32;;;;;;;;;;6292893;28;20017;-78
2022/04/23 03:59:25;;;;;;;35.88;16.83;;;;;;;;;;6297426;28;20069;-78
2022/04/23 04:02:25;;;;;;;39.90;17.38;;;;;;;;;;6290698;28;20020;-78
2022/04/23 04:05:25;;;;;;;33.95;18.38;;;;;;;;;;6295435;28;20360;-78
2022/04/23 04:08:26;;;;;;;41.90;22.55;;;;;;;;;;6296813;28;20048;-78
2022/04/23 04:11:26;;;;;;;40.13;21.63;;;;;;;;;;6293392;28;20044;-78
2022/04/23 04:14:27;;;;;;;46.67;20.23;;;;;;;;;;6296502;28;20254;-78
2022/04/23 04:17:27;;;;;;;46.30;24.52;;;;;;;;;;6296497;28;20258;-78
2022/04/23 04:20:32;;;;;;;45.53;23.07;;;;;;;;;;6276153;28;20017;-78
2022/04/23 04:23:32;;;;;;;42.03;21.67;;;;;;;;;;6287514;28;20263;-78
2022/04/23 04:26:32;;;;;;;36.55;18.23;;;;;;;;;;6295977;28;20040;-78
2022/04/23 04:29:32;;;;;;;35.65;18.77;;;;;;;;;;6278168;28;20067;-78
2022/04/23 04:32:33;;;;;;;36.30;18.35;;;;;;;;;;6269709;28;20029;-78
2022/04/23 04:35:33;;;;;;;36.50;20.50;;;;;;;;;;6286573;28;20023;-78
2022/04/23 04:38:33;;;;;;;33.10;17.60;;;;;;;;;;6296525;28;20024;-79
2022/04/23 04:41:35;;;;;;;41.95;21.90;;;;;;;;;;6275463;28;20021;-79
2022/04/23 04:44:35;;;;;;;38.53;20.10;;;;;;;;;;6279550;28;20498;-80
2022/04/23 04:47:36;;;;;;;34.80;20.58;;;;;;;;;;6276921;28;20028;-80
2022/04/23 04:50:36;;;;;;;56.30;26.52;;;;;;;;;;6276317;28;20096;-80
2022/04/23 04:53:36;;;;;;;58.20;29.48;;;;;;;;;;6270979;28;20076;-80
2022/04/23 04:56:36;;;;;;;69.57;32.03;;;;;;;;;;6276757;28;20017;-80
2022/04/23 04:59:37;;;;;;;52.60;27.55;;;;;;;;;;6279797;28;20324;-80
2022/04/23 05:02:38;;;;;;;61.47;29.02;;;;;;;;;;6273922;28;20491;-80
2022/04/23 05:05:40;;;;;;;57.20;31.83;;;;;;;;;;6271204;28;20013;-80
2022/04/23 05:08:40;;;;;;;51.60;28.42;;;;;;;;;;6270384;28;20028;-80
2022/04/23 05:11:40;;;;;;;52.40;27.95;;;;;;;;;;6277715;28;20392;-80
2022/04/23 05:14:41;;;;;;;48.97;28.30;;;;;;;;;;6294734;28;20427;-80
2022/04/23 05:17:41;;;;;;;43.43;25.57;;;;;;;;;;6278653;28;20024;-80
2022/04/23 05:20:41;;;;;;;41.07;21.23;;;;;;;;;;6283140;28;20270;-80
2022/04/23 05:23:41;;;;;;;36.27;20.03;;;;;;;;;;6280238;28;20279;-80
2022/04/23 05:26:42;;;;;;;36.63;22.33;;;;;;;;;;6278048;28;20024;-80
2022/04/23 05:29:42;;;;;;;37.78;22.40;;;;;;;;;;6284247;28;20008;-79
2022/04/23 05:32:42;;;;;;;37.47;23.77;;;;;;;;;;6274782;28;20027;-80
2022/04/23 05:35:42;;;;;;;42.50;22.67;;;;;;;;;;6273407;28;20021;-80
2022/04/23 05:38:43;;;;;;;32.03;19.90;;;;;;;;;;6273681;28;20016;-80
2022/04/23 05:41:43;;;;;;;34.30;18.90;;;;;;;;;;6277630;28;20017;-80
2022/04/23 05:44:43;;;;;;;35.13;21.33;;;;;;;;;;6270104;28;20092;-81
2022/04/23 05:47:43;;;;;;;27.13;16.80;;;;;;;;;;6272190;28;20013;-79
2022/04/23 05:50:43;;;;;;;31.57;18.43;;;;;;;;;;6270863;28;20016;-80
2022/04/23 05:53:44;;;;;;;23.23;15.80;;;;;;;;;;6271386;28;20013;-80
2022/04/23 05:56:44;;;;;;;20.77;14.83;;;;;;;;;;6295105;28;20025;-80
2022/04/23 05:59:44;;;;;;;22.73;15.03;;;;;;;;;;6294279;28;20425;-80
2022/04/23 06:02:44;;;;;;;21.20;13.77;;;;;;;;;;6293706;28;20042;-80
2022/04/23 06:05:45;;;;;;;23.17;13.00;;;;;;;;;;6295750;28;20096;-80
2022/04/23 06:08:45;;;;;;;27.20;16.17;;;;;;;;;;6295440;28;20012;-80
2022/04/23 06:11:45;;;;;;;24.20;14.83;;;;;;;;;;6292017;28;20051;-80
2022/04/23 06:14:45;;;;;;;25.47;16.27;;;;;;;;;;6292845;28;20420;-79
2022/04/23 06:17:46;;;;;;;25.73;16.30;;;;;;;;;;6292674;28;20012;-80
2022/04/23 06:20:46;;;;;;;26.20;15.00;;;;;;;;;;6271888;28;20055;-80
2022/04/23 06:23:47;;;;;;;21.57;12.67;;;;;;;;;;6269084;28;20025;-80
2022/04/23 06:26:48;;;;;;;23.13;13.23;;;;;;;;;;6280074;28;20013;-79
2022/04/23 06:29:48;;;;;;;14.15;7.35;;;;;;;;;;6276618;28;20016;-79
2022/04/23 06:32:48;;;;;;;10.40;6.10;;;;;;;;;;6267659;28;20446;-80
2022/04/23 06:35:48;;;;;;;11.67;6.23;;;;;;;;;;6280824;28;20035;-80
2022/04/23 06:38:49;;;;;;;9.50;5.63;;;;;;;;;;6287841;28;20037;-79
2022/04/23 06:41:49;;;;;;;9.83;5.73;;;;;;;;;;6278150;28;20330;-79
2022/04/23 06:44:49;;;;;;;8.10;5.67;;;;;;;;;;6276077;28;20020;-79
2022/04/23 06:47:57;;;;;;;9.60;5.30;;;;;;;;;;6278100;28;20102;-79
2022/04/23 06:50:57;;;;;;;14.32;8.20;;;;;;;;;;6268720;28;20120;-79
2022/04/23 06:53:57;;;;;;;10.63;6.57;;;;;;;;;;6264441;28;20020;-79
2022/04/23 06:56:57;;;;;;;5.87;3.80;;;;;;;;;;6269916;28;20024;-79
2022/04/23 07:00:01;;;;;;;8.83;4.47;;;;;;;;;;6268072;28;20063;-79
2022/04/23 07:03:01;;;;;;;9.23;4.28;;;;;;;;;;6275678;28;20017;-80
2022/04/23 07:06:02;;;;;;;14.67;5.90;;;;;;;;;;6278530;28;19913;-79
2022/04/23 07:09:03;;;;;;;10.82;5.82;;;;;;;;;;6273599;28;20021;-79
2022/04/23 07:12:05;;;;;;;14.40;5.18;;;;;;;;;;6274994;28;20143;-79
2022/04/23 07:15:05;;;;;;;11.02;6.32;;;;;;;;;;6270459;28;20392;-80
2022/04/23 07:18:06;;;;;;;12.13;5.93;;;;;;;;;;6278496;28;20028;-79
2022/04/23 07:21:06;;;;;;;10.60;5.70;;;;;;;;;;6275185;28;20338;-79
2022/04/23 07:24:08;;;;;;;11.53;5.93;;;;;;;;;;6283766;28;20028;-79
2022/04/23 07:27:08;;;;;;;10.25;5.80;;;;;;;;;;6290806;28;20016;-79
2022/04/23 07:30:09;;;;;;;7.37;5.07;;;;;;;;;;6296714;28;20086;-80
2022/04/23 07:37:28;;;;;;;9.70;5.87;;;;;;;;;;6297413;28;20507;-79
2022/04/23 07:39:48;;;;;;;10.57;5.18;;;;;;;;;;6271461;28;20056;-80
2022/04/23 07:42:49;;;;;;;11.57;6.40;;;;;;;;;;6287058;28;20035;-80
2022/04/23 07:45:49;;;;;;;8.27;5.47;;;;;;;;;;6291282;28;20013;-80
2022/04/23 07:48:50;;;;;;;9.97;5.47;;;;;;;;;;6272212;28;20025;-80
2022/04/23 07:51:50;;;;;;;9.10;5.72;;;;;;;;;;6270845;28;20111;-80
2022/04/23 07:54:50;;;;;;;9.33;5.17;;;;;;;;;;6278719;28;20031;-80
2022/04/23 07:57:51;;;;;;;7.43;4.73;;;;;;;;;;6289553;28;20086;-80
2022/04/23 08:00:51;;;;;;;7.03;4.43;;;;;;;;;;6274047;28;20291;-80
2022/04/23 08:03:51;;;;;;;4.93;3.57;;;;;;;;;;6276769;28;20013;-80
2022/04/23 08:06:52;;;;;;;7.17;5.10;;;;;;;;;;6283011;28;20605;-80
2022/04/23 08:09:52;;;;;;;9.67;5.33;;;;;;;;;;6274298;28;20456;-80
2022/04/23 08:12:54;;;;;;;6.10;4.10;;;;;;;;;;6274975;28;20017;-80
2022/04/23 08:15:54;;;;;;;7.22;4.85;;;;;;;;;;6277416;28;20040;-80
2022/04/23 08:18:55;;;;;;;7.00;4.73;;;;;;;;;;6277070;28;20464;-79
2022/04/23 08:21:55;;;;;;;9.30;5.20;;;;;;;;;;6275527;28;20452;-79
2022/04/23 08:24:56;;;;;;;10.83;5.50;;;;;;;;;;6275766;28;20341;-79
2022/04/23 08:31:21;;;;;;;8.55;5.40;;;;;;;;;;6279223;28;20059;-79
2022/04/23 08:34:21;;;;;;;7.55;5.38;;;;;;;;;;6276918;28;20047;-79
2022/04/23 08:37:22;;;;;;;8.23;5.13;;;;;;;;;;6296705;28;20043;-79
2022/04/23 08:40:23;;;;;;;7.65;4.82;;;;;;;;;;6285122;28;20128;-79
2022/04/23 08:43:23;;;;;;;7.63;4.70;;;;;;;;;;6276367;28;20020;-79
2022/04/23 08:46:26;;;;;;;6.90;4.10;;;;;;;;;;6279273;28;20092;-79
2022/04/23 08:49:33;;;;;;;7.50;4.05;;;;;;;;;;6272846;28;20037;-79
2022/04/23 08:52:33;;;;;;;5.82;3.85;;;;;;;;;;6294748;28;20019;-79
2022/04/23 08:55:34;;;;;;;5.40;3.43;;;;;;;;;;6283642;28;20025;-79
2022/04/23 08:58:34;;;;;;;7.30;4.03;;;;;;;;;;6282960;28;20028;-79
2022/04/23 09:01:35;;;;;;;7.97;4.20;;;;;;;;;;6275983;28;20027;-79
2022/04/23 09:04:37;;;;;;;6.88;3.60;;;;;;;;;;6294614;28;20383;-79
2022/04/23 09:07:37;;;;;;;5.05;3.40;;;;;;;;;;6276941;28;20017;-79
2022/04/23 09:10:47;;;;;;;6.30;3.13;;;;;;;;;;6285090;28;20103;-79
2022/04/23 09:13:47;;;;;;;7.80;4.20;;;;;;;;;;6279044;28;20017;-79
2022/04/23 09:23:41;;;;;;;5.93;4.05;;;;;;;;;;6280690;28;20029;-78
2022/04/23 09:26:42;;;;;;;5.70;4.15;;;;;;;;;;6289987;28;20021;-78
2022/04/23 09:29:56;;;;;;;7.10;3.80;;;;;;;;;;6281306;28;20400;-79
2022/04/23 09:32:57;;;;;;;8.93;4.47;;;;;;;;;;6286057;28;20736;-79
2022/04/23 09:35:59;;;;;;;8.90;4.43;;;;;;;;;;6277797;28;20411;-79
2022/04/23 09:39:00;;;;;;;7.25;4.65;;;;;;;;;;6268403;28;20590;-79
2022/04/23 09:42:00;;;;;;;;;;;;;;;;;;6277905;28;20507;-79
2022/04/23 09:45:12;;;;;;;8.10;4.70;;;;;;;;;;6270776;28;19905;-78
2022/04/23 09:48:14;;;;;;;7.70;4.22;;;;;;;;;;6271749;28;20264;-79
2022/04/23 09:51:28;;;;;;;7.55;4.97;;;;;;;;;;6268178;28;20546;-79
2022/04/23 09:54:29;;;;;;;9.70;5.07;;;;;;;;;;6276700;28;20029;-79
2022/04/23 09:57:30;;;;;;;9.35;5.18;;;;;;;;;;6281814;28;20531;-79
2022/04/23 10:00:30;;;;;;;6.63;5.00;;;;;;;;;;6267415;28;20025;-79
2022/04/23 10:03:31;;;;;;;10.67;4.97;;;;;;;;;;6279509;28;20016;-79
2022/04/23 10:06:35;;;;;;;7.13;4.97;;;;;;;;;;6278458;28;20017;-79
2022/04/23 10:09:38;;;;;;;8.82;5.07;;;;;;;;;;6270638;28;20045;-79
2022/04/23 10:12:39;;;;;;;10.80;5.38;;;;;;;;;;6275883;28;20531;-79
2022/04/23 10:15:40;;;;;;;7.65;4.63;;;;;;;;;;6273689;28;20508;-79
2022/04/23 10:18:42;;;;;;;8.00;4.78;;;;;;;;;;6267815;28;20032;-79
2022/04/23 10:21:53;;;;;;;7.43;4.68;;;;;;;;;;6269420;28;20487;-79
2022/04/23 10:25:06;;;;;;;9.18;4.78;;;;;;;;;;6268166;28;20041;-79
2022/04/23 10:28:08;;;;;;;6.40;4.15;;;;;;;;;;6281768;28;20059;-79
2022/04/23 10:31:15;;;;;;;6.05;4.22;;;;;;;;;;6272180;28;20020;-79
2022/04/23 10:34:34;;;;;;;8.77;4.25;;;;;;;;;;6279986;28;20536;-79
2022/04/23 10:37:40;;;;;;;5.88;4.15;;;;;;;;;;6276246;28;20451;-79
2022/04/23 10:40:41;;;;;;;6.88;5.00;;;;;;;;;;6290053;28;20383;-79
2022/04/23 10:43:52;;;;;;;11.07;5.10;;;;;;;;;;6277315;28;20095;-79
2022/04/23 10:46:56;;;;;;;6.17;4.27;;;;;;;;;;6279706;28;20582;-79
2022/04/23 10:50:13;;;;;;;7.68;4.35;;;;;;;;;;6286396;28;20686;-79
2022/04/23 10:53:13;;;;;;;8.85;4.88;;;;;;;;;;6282200;28;20427;-78
2022/04/23 10:56:17;;;;;;;5.93;3.80;;;;;;;;;;6276847;28;20025;-79
2022/04/23 10:59:38;;;;;;;7.57;4.65;;;;;;;;;;6276708;28;20032;-79
2022/04/23 11:02:39;;;;;;;7.13;4.20;;;;;;;;;;6273241;28;20086;-79
2022/04/23 11:12:37;;;;;;;6.90;4.07;;;;;;;;;;6277732;28;20086;-79
2022/04/23 11:15:57;;;;;;;8.53;6.33;;;;;;;;;;6272448;28;20101;-79
2022/04/23 11:18:59;;;;;;;5.85;4.32;;;;;;;;;;6272140;28;20032;-79
2022/04/23 11:21:59;;;;;;;;;;;;;;;;;;6280454;28;20029;-79
2022/04/23 11:25:00;;;;;;;8.57;5.10;;;;;;;;;;6280857;28;19915;-79
2022/04/23 11:28:26;;;;;;;10.70;5.70;;;;;;;;;;6293128;28;20020;-79
2022/04/23 11:31:26;;;;;;;7.70;4.25;;;;;;;;;;6289571;28;20036;-79
2022/04/23 11:34:30;;;;;;;5.20;3.90;;;;;;;;;;6285959;28;20060;-79
2022/04/23 11:37:31;;;;;;;9.85;6.00;;;;;;;;;;6299173;28;20152;-80
2022/04/23 11:40:34;;;;;;;7.55;4.20;;;;;;;;;;6300545;28;20032;-80
2022/04/23 11:43:37;;;;;;;8.48;5.20;;;;;;;;;;6283925;28;20399;-80
2022/04/23 11:46:45;;;;;;;8.55;4.68;;;;;;;;;;6287535;28;20021;-80
2022/04/23 11:49:48;;;;;;;7.43;5.40;;;;;;;;;;6273202;28;20021;-80
2022/04/23 11:52:58;;;;;;;9.75;5.00;;;;;;;;;;6287034;28;20476;-80
2022/04/23 11:55:58;;;;;;;6.60;5.05;;;;;;;;;;6287909;28;20069;-80
2022/04/23 11:59:01;;;;;;;12.33;6.90;;;;;;;;;;6281334;28;20025;-80
2022/04/23 12:02:01;;;;;;;6.28;4.03;;;;;;;;;;6279076;28;20028;-80
2022/04/23 12:05:02;;;;;;;10.93;3.67;;;;;;;;;;6268021;28;20620;-80
2022/04/23 12:08:05;;;;;;;6.43;4.20;;;;;;;;;;6271304;28;20424;-80
2022/04/23 12:11:21;;;;;;;6.28;3.88;;;;;;;;;;6276946;28;20098;-80
2022/04/23 12:14:21;;;;;;;9.18;5.30;;;;;;;;;;6288972;28;20028;-80
2022/04/23 12:17:22;;;;;;;4.87;3.73;;;;;;;;;;6287818;28;20012;-80
2022/04/23 12:20:23;;;;;;;7.78;4.38;;;;;;;;;;6282178;28;20034;-81
2022/04/23 12:23:24;;;;;;;7.47;4.38;;;;;;;;;;6285496;28;20051;-80
2022/04/23 12:26:29;;;;;;;5.77;4.07;;;;;;;;;;6277153;28;20206;-81
2022/04/23 12:42:54;;;;;;;7.30;4.70;;;;;;;;;;6270426;28;20025;-79
2022/04/23 12:46:05;;;;;;;9.48;5.50;;;;;;;;;;6269283;28;20116;-80
2022/04/23 12:49:05;;;;;;;6.50;4.25;;;;;;;;;;6269785;28;20028;-80
2022/04/23 12:52:11;;;;;;;9.10;5.37;;;;;;;;;;6274157;28;20021;-80
2022/04/23 12:55:32;;;;;;;8.18;4.95;;;;;;;;;;6282991;28;20025;-79
2022/04/23 12:58:32;;;;;;;8.52;5.78;;;;;;;;;;6285703;28;20111;-80
2022/04/23 13:01:33;;;;;;;9.00;5.23;;;;;;;;;;6278853;28;20017;-80
2022/04/23 13:04:33;;;;;;;8.00;5.10;;;;;;;;;;6280784;28;20021;-80
2022/04/23 13:10:52;;;;;;;8.07;5.10;;;;;;;;;;6278528;28;20040;-79
2022/04/23 13:13:54;;;;;;;9.03;5.40;;;;;;;;;;6284968;28;20136;-79
2022/04/23 13:16:54;;;;;;;8.40;5.18;;;;;;;;;;6279798;28;20100;-79
2022/04/23 13:19:55;;;;;;;8.97;5.43;;;;;;;;;;6285023;28;20526;-79
2022/04/23 13:22:55;;;;;;;8.30;5.87;;;;;;;;;;6293626;28;20029;-80
2022/04/23 13:25:57;;;;;;;8.93;5.67;;;;;;;;;;6293346;28;20020;-80
2022/04/23 13:28:58;;;;;;;7.05;4.60;;;;;;;;;;6295484;28;20013;-79
2022/04/23 13:31:58;;;;;;;7.40;5.03;;;;;;;;;;6296098;28;20013;-79
2022/04/23 13:34:58;;;;;;;6.80;4.63;;;;;;;;;;6283717;28;20021;-79
2022/04/23 13:37:58;;;;;;;11.33;4.47;;;;;;;;;;6269331;28;20382;-80
2022/04/23 13:40:59;;;;;;;7.80;5.37;;;;;;;;;;6270306;28;20527;-79
2022/04/23 13:44:01;;;;;;;8.27;4.57;;;;;;;;;;6285930;28;20021;-79
2022/04/23 13:47:01;;;;;;;7.82;4.90;;;;;;;;;;6270234;28;20081;-79
2022/04/23 13:50:03;;;;;;;9.07;5.97;;;;;;;;;;6268897;28;20685;-79
2022/04/23 13:53:03;;;;;;;9.38;5.28;;;;;;;;;;6268804;28;20017;-79
2022/04/23 13:56:04;;;;;;;10.03;5.20;;;;;;;;;;6288231;28;20101;-80
2022/04/23 13:59:04;;;;;;;7.50;4.87;;;;;;;;;;6294685;28;20024;-79
2022/04/23 14:12:21;;;;;;;6.00;4.43;;;;;;;;;;6271845;28;20041;-79
2022/04/23 14:15:21;;;;;;;10.87;4.07;;;;;;;;;;6269377;28;20063;-79
2022/04/23 14:18:21;;;;;;;4.83;3.13;;;;;;;;;;6269620;28;20496;-80
2022/04/23 14:21:22;;;;;;;6.83;4.07;;;;;;;;;;6268784;28;20492;-80
2022/04/23 14:24:22;;;;;;;7.60;4.53;;;;;;;;;;6275431;28;20479;-79
2022/04/23 14:27:22;;;;;;;8.80;4.10;;;;;;;;;;6293023;28;20020;-80
2022/04/23 14:30:22;;;;;;;8.33;4.30;;;;;;;;;;6294308;28;20557;-80
2022/04/23 14:33:23;;;;;;;7.03;4.37;;;;;;;;;;6293902;28;20414;-79
2022/04/23 14:36:23;;;;;;;8.03;4.83;;;;;;;;;;6271667;28;20025;-80
2022/04/23 14:39:23;;;;;;;7.17;4.43;;;;;;;;;;6268461;28;20021;-80
2022/04/23 14:42:24;;;;;;;7.07;4.33;;;;;;;;;;6267372;28;20024;-80
2022/04/23 14:45:28;;;;;;;6.90;4.30;;;;;;;;;;6269190;28;20021;-80
2022/04/23 14:48:28;;;;;;;6.68;4.07;;;;;;;;;;6268692;28;20017;-80
2022/04/23 14:54:48;;;;;;;10.68;4.35;;;;;;;;;;6275723;28;20024;-79
2022/04/23 14:57:48;;;;;;;8.37;4.67;;;;;;;;;;6293912;28;20085;-80
2022/04/23 15:00:49;;;;;;;8.90;5.20;;;;;;;;;;6293679;28;20557;-80
2022/04/23 15:03:49;;;;;;;8.13;5.13;;;;;;;;;;6284496;28;20554;-80
2022/04/23 15:06:52;;;;;;;9.13;4.57;;;;;;;;;;6293816;28;20478;-80
2022/04/23 15:09:52;;;;;;;8.52;5.35;;;;;;;;;;6290429;28;20024;-80
2022/04/23 15:12:53;;;;;;;8.13;4.77;;;;;;;;;;6293444;28;20036;-80
2022/04/23 15:15:53;;;;;;;7.37;4.53;;;;;;;;;;6293913;28;20494;-80
2022/04/23 15:18:53;;;;;;;5.90;4.33;;;;;;;;;;6286258;28;20013;-79
2022/04/23 15:21:54;;;;;;;8.03;4.40;;;;;;;;;;6283785;28;20021;-79
2022/04/23 15:24:55;;;;;;;9.73;5.47;;;;;;;;;;6271207;28;20028;-80
2022/04/23 15:27:55;;;;;;;7.70;4.50;;;;;;;;;;6268515;28;20461;-80
2022/04/23 15:30:55;;;;;;;7.33;5.03;;;;;;;;;;6267300;28;20468;-80
2022/04/23 15:33:55;;;;;;;9.00;5.17;;;;;;;;;;6268667;28;20017;-80
2022/04/23 15:36:55;;;;;;;9.07;5.20;;;;;;;;;;6293096;28;20021;-80
2022/04/23 15:39:56;;;;;;;8.03;4.93;;;;;;;;;;6293342;28;20017;-80
2022/04/23 15:42:56;;;;;;;6.67;4.20;;;;;;;;;;6291642;28;20028;-80
2022/04/23 15:45:57;;;;;;;8.23;4.53;;;;;;;;;;6291354;28;20028;-80
2022/04/23 15:48:57;;;;;;;8.57;5.47;;;;;;;;;;6295044;28;20019;-80
2022/04/23 15:51:57;;;;;;;7.00;3.97;;;;;;;;;;6297574;28;20027;-80
2022/04/23 15:54:57;;;;;;;8.20;4.77;;;;;;;;;;6296052;28;20021;-79
2022/04/23 15:57:58;;;;;;;8.87;4.97;;;;;;;;;;6296276;28;20031;-80
2022/04/23 16:00:59;;;;;;;9.23;4.67;;;;;;;;;;6297664;28;20012;-80
2022/04/23 16:04:00;;;;;;;8.20;5.75;;;;;;;;;;6288416;28;20024;-80
2022/04/23 16:07:00;;;;;;;8.43;5.33;;;;;;;;;;6296299;28;20276;-80
2022/04/23 16:10:01;;;;;;;10.13;6.30;;;;;;;;;;6294629;28;20017;-80
2022/04/23 16:13:01;;;;;;;8.87;5.70;;;;;;;;;;6297322;28;20674;-80
2022/04/23 16:16:02;;;;;;;10.40;5.57;;;;;;;;;;6297237;28;20373;-80
2022/04/23 16:19:02;;;;;;;8.87;5.63;;;;;;;;;;6288603;28;20025;-80
2022/04/23 16:22:02;;;;;;;11.77;5.53;;;;;;;;;;6288046;28;20021;-80
2022/04/23 16:25:03;;;;;;;9.70;4.63;;;;;;;;;;6285494;28;20027;-80
2022/04/23 16:28:03;;;;;;;9.47;4.93;;;;;;;;;;6297051;28;20602;-80
2022/04/23 16:31:04;;;;;;;6.67;4.63;;;;;;;;;;6296831;28;20023;-80
2022/04/23 16:34:04;;;;;;;10.17;5.00;;;;;;;;;;6293391;28;20009;-80
2022/04/23 16:47:11;;;;;;;7.70;4.75;;;;;;;;;;6271735;28;20107;-80
2022/04/23 16:50:11;;;;;;;7.10;4.57;;;;;;;;;;6271792;28;20085;-80
2022/04/23 16:53:12;;;;;;;8.55;5.35;;;;;;;;;;6271602;28;20435;-79
2022/04/23 16:56:12;;;;;;;11.23;7.23;;;;;;;;;;6297831;28;20037;-80
2022/04/23 16:59:12;;;;;;;9.02;5.78;;;;;;;;;;6271344;28;20356;-79
2022/04/23 17:02:13;;;;;;;10.43;5.50;;;;;;;;;;6271653;28;20024;-80
2022/04/23 17:05:13;;;;;;;8.80;5.13;;;;;;;;;;6292388;28;20028;-80
2022/04/23 17:08:13;;;;;;;8.55;5.45;;;;;;;;;;6296131;28;20479;-79
2022/04/23 17:11:14;;;;;;;9.43;5.45;;;;;;;;;;6280393;28;20038;-79
2022/04/23 17:14:14;;;;;;;10.57;5.70;;;;;;;;;;6270932;28;20024;-79
2022/04/23 17:17:14;;;;;;;13.03;7.23;;;;;;;;;;6286576;28;20256;-79
2022/04/23 17:20:15;;;;;;;11.13;7.20;;;;;;;;;;6293937;28;20266;-79
2022/04/23 17:23:15;;;;;;;14.85;8.13;;;;;;;;;;6294182;28;20306;-79
2022/04/23 17:26:16;;;;;;;10.57;6.55;;;;;;;;;;6290602;28;20024;-80
2022/04/23 17:29:17;;;;;;;14.50;8.23;;;;;;;;;;6295407;28;20025;-79
2022/04/23 17:32:17;;;;;;;12.23;6.53;;;;;;;;;;6294275;28;20388;-79
2022/04/23 17:35:18;;;;;;;11.25;7.35;;;;;;;;;;6281820;28;20731;-79
2022/04/23 17:41:37;;;;;;;10.55;6.88;;;;;;;;;;6271715;28;20040;-79
2022/04/23 17:44:37;;;;;;;11.63;6.70;;;;;;;;;;6278052;28;20360;-79
2022/04/23 17:47:38;;;;;;;11.50;6.35;;;;;;;;;;6275423;28;20021;-79
2022/04/23 17:50:39;;;;;;;15.00;7.77;;;;;;;;;;6270574;28;20044;-79
2022/04/23 17:53:39;;;;;;;12.48;6.93;;;;;;;;;;6275334;28;20275;-79
2022/04/23 17:56:40;;;;;;;14.32;6.63;;;;;;;;;;6280322;28;20116;-79
2022/04/23 18:07:23;;;;;;;11.65;7.13;;;;;;;;;;6289028;28;20032;-80
2022/04/23 18:09:46;;;;;;;15.95;8.05;;;;;;;;;;6275246;28;20017;-79
2022/04/23 18:12:46;;;;;;;16.10;9.25;;;;;;;;;;6267378;28;20047;-79
2022/04/23 18:15:47;;;;;;;14.67;8.10;;;;;;;;;;6267653;28;20037;-79
2022/04/23 18:18:47;;;;;;;16.38;8.75;;;;;;;;;;6271525;28;20309;-79
2022/04/23 18:21:47;;;;;;;14.70;9.97;;;;;;;;;;6292139;28;20025;-80
2022/04/23 18:24:48;;;;;;;21.45;10.23;;;;;;;;;;6289457;28;20281;-80
2022/04/23 18:27:49;;;;;;;24.63;11.85;;;;;;;;;;6275557;28;20215;-80
2022/04/23 18:30:49;;;;;;;20.17;10.77;;;;;;;;;;6269459;28;20099;-80
2022/04/23 18:33:49;;;;;;;19.63;10.70;;;;;;;;;;6269523;28;20527;-80
2022/04/23 18:36:53;;;;;;;12.83;7.97;;;;;;;;;;6294242;28;20032;-80
2022/04/23 18:39:53;;;;;;;20.17;11.25;;;;;;;;;;6292582;28;20263;-81
2022/04/23 18:42:53;;;;;;;22.17;12.67;;;;;;;;;;6292651;28;20027;-80
2022/04/23 18:45:53;;;;;;;21.63;11.13;;;;;;;;;;6292521;28;20266;-80
2022/04/23 18:48:53;;;;;;;16.17;8.80;;;;;;;;;;6292631;28;20266;-80
2022/04/23 18:51:54;;;;;;;15.90;8.63;;;;;;;;;;6292395;28;20701;-80
2022/04/23 18:54:54;;;;;;;18.57;9.50;;;;;;;;;;6274268;28;20286;-81
2022/04/23 18:57:55;;;;;;;19.47;10.73;;;;;;;;;;6283137;28;20352;-81
2022/04/23 19:00:57;;;;;;;17.63;8.80;;;;;;;;;;6291008;28;20275;-81
2022/04/23 19:03:58;;;;;;;17.48;9.40;;;;;;;;;;6290999;28;20115;-81